Time;durP1;ratioP1;P1;durP2;ratioP2;P2;SDS_P1;SDS_P2;PMS_P1;PMS_P2;Temp;Humidity;BMP_temperature;BMP_pressure;BME280_temperature;BME280_humidity;BME280_pressure;Samples;Min_cycle;Max_cycle;Signal;HPM_P1;HPM_P2
2021/10/27 00:00:31;;;;;;;35.30;23.95;;;;;;;;;;4934851;29;20024;-75
2021/10/27 00:02:57;;;;;;;35.45;24.38;;;;;;;;;;4950152;29;20441;-76
2021/10/27 00:05:23;;;;;;;34.78;24.58;;;;;;;;;;4951307;29;20035;-76
2021/10/27 00:07:50;;;;;;;35.42;24.88;;;;;;;;;;4950506;29;20035;-76
2021/10/27 00:10:17;;;;;;;35.05;24.98;;;;;;;;;;4947353;29;20489;-76
2021/10/27 00:12:43;;;;;;;30.40;24.10;;;;;;;;;;4931730;29;20083;-76
2021/10/27 00:15:11;;;;;;;37.75;25.92;;;;;;;;;;4948582;29;20031;-76
2021/10/27 00:17:37;;;;;;;32.22;23.88;;;;;;;;;;4950445;29;20062;-76
2021/10/27 00:20:04;;;;;;;36.63;24.40;;;;;;;;;;4957823;29;20070;-70
2021/10/27 00:22:30;;;;;;;36.40;25.10;;;;;;;;;;4946603;29;20042;-76
2021/10/27 00:24:56;;;;;;;35.58;25.50;;;;;;;;;;4953565;29;20484;-75
2021/10/27 00:27:23;;;;;;;33.83;25.42;;;;;;;;;;4953641;29;20489;-73
2021/10/27 00:29:49;;;;;;;35.30;26.00;;;;;;;;;;4941836;29;20477;-76
2021/10/27 00:32:15;;;;;;;39.63;26.52;;;;;;;;;;4949547;28;20031;-77
2021/10/27 00:34:41;;;;;;;34.65;26.13;;;;;;;;;;4954502;28;20504;-76
2021/10/27 00:37:07;;;;;;;35.95;26.90;;;;;;;;;;4953628;29;20477;-76
2021/10/27 00:39:36;;;;;;;34.83;25.85;;;;;;;;;;4957584;29;20102;-75
2021/10/27 00:42:03;;;;;;;34.85;26.65;;;;;;;;;;4951602;29;20027;-76
2021/10/27 00:44:29;;;;;;;41.05;28.75;;;;;;;;;;4948337;29;20119;-76
2021/10/27 00:47:14;;;;;;;44.17;31.02;;;;;;;;;;4947814;29;20400;-74
2021/10/27 00:49:41;;;;;;;59.22;35.85;;;;;;;;;;4957473;29;20019;-74
2021/10/27 00:52:10;;;;;;;47.33;33.13;;;;;;;;;;4957657;29;20492;-75
2021/10/27 00:54:37;;;;;;;45.20;31.80;;;;;;;;;;4951637;29;20023;-76
2021/10/27 00:57:03;;;;;;;44.55;30.92;;;;;;;;;;4947079;29;20087;-76
2021/10/27 00:59:29;;;;;;;38.20;28.50;;;;;;;;;;4951927;29;20032;-75
2021/10/27 01:01:56;;;;;;;38.67;28.15;;;;;;;;;;4953485;28;20038;-75
2021/10/27 01:04:23;;;;;;;36.72;27.58;;;;;;;;;;4932217;29;20036;-76
2021/10/27 01:06:49;;;;;;;34.70;26.13;;;;;;;;;;4930502;29;20547;-75
2021/10/27 01:09:15;;;;;;;33.60;25.85;;;;;;;;;;4957416;29;20027;-77
2021/10/27 01:11:42;;;;;;;33.38;25.27;;;;;;;;;;4957011;29;20027;-76
2021/10/27 01:14:09;;;;;;;40.03;27.42;;;;;;;;;;4950607;29;20027;-76
2021/10/27 01:16:36;;;;;;;34.03;26.08;;;;;;;;;;4953338;29;20520;-76
2021/10/27 01:19:02;;;;;;;35.72;25.00;;;;;;;;;;4957150;28;20027;-76
2021/10/27 01:21:29;;;;;;;31.83;24.20;;;;;;;;;;4957134;29;20381;-75
2021/10/27 01:23:56;;;;;;;31.00;24.55;;;;;;;;;;4950674;29;20023;-76
2021/10/27 01:26:22;;;;;;;30.85;24.45;;;;;;;;;;4944800;29;20047;-76
2021/10/27 01:28:48;;;;;;;35.80;26.23;;;;;;;;;;4955637;29;20011;-75
2021/10/27 01:31:15;;;;;;;33.83;26.35;;;;;;;;;;4948168;29;20057;-77
2021/10/27 01:33:44;;;;;;;39.60;28.13;;;;;;;;;;4956869;28;20044;-75
2021/10/27 01:36:10;;;;;;;33.15;26.05;;;;;;;;;;4940710;29;20049;-76
2021/10/27 01:38:37;;;;;;;35.65;27.20;;;;;;;;;;4956857;29;20117;-77
2021/10/27 01:41:04;;;;;;;37.42;26.98;;;;;;;;;;4950698;29;20019;-76
2021/10/27 01:43:30;;;;;;;39.20;27.45;;;;;;;;;;4958036;29;20543;-75
2021/10/27 01:45:56;;;;;;;39.22;28.00;;;;;;;;;;4948211;29;20047;-76
2021/10/27 01:48:24;;;;;;;39.53;27.90;;;;;;;;;;4944793;29;20023;-76
2021/10/27 01:50:50;;;;;;;34.80;27.17;;;;;;;;;;4956185;29;20488;-76
2021/10/27 01:53:16;;;;;;;37.60;28.23;;;;;;;;;;4939440;29;20448;-76
2021/10/27 01:55:42;;;;;;;38.60;27.48;;;;;;;;;;4945219;29;20023;-76
2021/10/27 01:58:11;;;;;;;36.38;27.52;;;;;;;;;;4940153;29;20082;-76
2021/10/27 02:00:37;;;;;;;35.53;25.95;;;;;;;;;;4948159;29;20500;-76
2021/10/27 02:03:03;;;;;;;35.53;27.02;;;;;;;;;;4952132;29;20031;-76
2021/10/27 02:05:29;;;;;;;36.72;26.23;;;;;;;;;;4952269;29;20393;-76
2021/10/27 02:07:55;;;;;;;35.33;26.25;;;;;;;;;;4942934;29;20027;-76
2021/10/27 02:10:21;;;;;;;37.03;27.45;;;;;;;;;;4956176;29;20030;-75
2021/10/27 02:12:47;;;;;;;37.28;27.20;;;;;;;;;;4943277;29;20067;-76
2021/10/27 02:15:13;;;;;;;37.25;27.35;;;;;;;;;;4942671;29;20028;-76
2021/10/27 02:17:39;;;;;;;36.47;26.98;;;;;;;;;;4945501;29;20037;-76
2021/10/27 02:20:06;;;;;;;37.33;27.50;;;;;;;;;;4941135;29;20034;-76
2021/10/27 02:22:33;;;;;;;38.13;27.40;;;;;;;;;;4950399;29;20023;-76
2021/10/27 02:24:59;;;;;;;38.20;28.08;;;;;;;;;;4947094;29;20500;-76
2021/10/27 02:27:25;;;;;;;38.83;28.42;;;;;;;;;;4944373;29;20039;-76
2021/10/27 02:29:51;;;;;;;41.70;30.75;;;;;;;;;;4939517;29;20031;-76
2021/10/27 02:32:19;;;;;;;37.97;28.98;;;;;;;;;;4937726;28;20692;-76
2021/10/27 02:34:45;;;;;;;39.72;28.15;;;;;;;;;;4955527;29;20065;-76
2021/10/27 02:37:11;;;;;;;42.28;28.25;;;;;;;;;;4933758;29;20032;-76
2021/10/27 02:39:37;;;;;;;40.10;28.48;;;;;;;;;;4949629;29;20086;-76
2021/10/27 02:42:03;;;;;;;38.83;28.85;;;;;;;;;;4947709;29;20481;-76
2021/10/27 02:44:30;;;;;;;39.55;28.13;;;;;;;;;;4952469;29;20027;-76
2021/10/27 02:46:56;;;;;;;36.42;27.63;;;;;;;;;;4953071;29;20440;-76
2021/10/27 02:49:22;;;;;;;38.95;28.15;;;;;;;;;;4951500;29;20024;-76
2021/10/27 02:51:48;;;;;;;39.63;28.75;;;;;;;;;;4944817;29;20090;-77
2021/10/27 02:54:14;;;;;;;37.90;28.23;;;;;;;;;;4955509;29;20046;-67
2021/10/27 02:56:40;;;;;;;39.42;27.70;;;;;;;;;;4937053;29;20031;-77
2021/10/27 02:59:08;;;;;;;38.42;29.33;;;;;;;;;;4944121;29;20034;-78
2021/10/27 03:01:34;;;;;;;37.80;27.63;;;;;;;;;;4930468;29;20062;-76
2021/10/27 03:04:01;;;;;;;39.65;26.95;;;;;;;;;;4955252;29;20102;-77
2021/10/27 03:06:29;;;;;;;39.00;28.23;;;;;;;;;;4945757;29;20046;-77
2021/10/27 03:08:55;;;;;;;41.63;28.63;;;;;;;;;;4946543;29;20069;-76
2021/10/27 03:11:21;;;;;;;38.17;28.17;;;;;;;;;;4947244;29;20039;-76
2021/10/27 03:13:47;;;;;;;43.45;29.60;;;;;;;;;;4953890;29;20027;-76
2021/10/27 03:16:13;;;;;;;39.35;30.42;;;;;;;;;;4948163;29;20497;-76
2021/10/27 03:18:39;;;;;;;48.20;34.95;;;;;;;;;;4955182;29;20031;-76
2021/10/27 03:21:05;;;;;;;51.00;37.50;;;;;;;;;;4946453;29;20031;-76
2021/10/27 03:23:31;;;;;;;47.90;35.83;;;;;;;;;;4941040;29;20019;-75
2021/10/27 03:25:57;;;;;;;48.28;35.38;;;;;;;;;;4950760;29;20031;-73
2021/10/27 03:28:24;;;;;;;44.20;33.95;;;;;;;;;;4952896;29;20039;-76
2021/10/27 03:30:50;;;;;;;50.08;34.78;;;;;;;;;;4931696;29;20076;-76
2021/10/27 03:33:16;;;;;;;44.75;32.47;;;;;;;;;;4930649;28;20036;-76
2021/10/27 03:35:42;;;;;;;45.30;33.35;;;;;;;;;;4949841;29;20028;-76
2021/10/27 03:38:08;;;;;;;42.88;32.88;;;;;;;;;;4954975;29;20023;-77
2021/10/27 03:40:34;;;;;;;46.17;32.45;;;;;;;;;;4953381;29;20090;-76
2021/10/27 03:43:00;;;;;;;46.00;31.95;;;;;;;;;;4944709;29;20034;-75
2021/10/27 03:45:26;;;;;;;52.70;35.42;;;;;;;;;;4946494;29;20118;-77
2021/10/27 03:47:53;;;;;;;56.42;38.88;;;;;;;;;;4959737;29;20035;-76
2021/10/27 03:50:19;;;;;;;62.13;42.35;;;;;;;;;;4959131;29;20020;-76
2021/10/27 03:52:45;;;;;;;58.55;40.10;;;;;;;;;;4944475;29;20449;-76
2021/10/27 03:55:11;;;;;;;53.40;34.92;;;;;;;;;;4932826;29;20047;-76
2021/10/27 03:57:37;;;;;;;45.33;31.92;;;;;;;;;;4953083;29;20074;-76
2021/10/27 04:00:05;;;;;;;42.45;30.65;;;;;;;;;;4953455;29;20393;-77
2021/10/27 04:02:34;;;;;;;47.50;32.45;;;;;;;;;;4949759;28;20109;-77
2021/10/27 04:05:00;;;;;;;43.42;32.17;;;;;;;;;;4950560;29;20028;-77
2021/10/27 04:07:26;;;;;;;41.20;30.17;;;;;;;;;;4949170;29;20031;-76
2021/10/27 04:09:52;;;;;;;46.22;30.15;;;;;;;;;;4936154;29;20035;-76
2021/10/27 04:12:18;;;;;;;41.92;30.30;;;;;;;;;;4958387;29;20035;-76
2021/10/27 04:14:44;;;;;;;44.13;31.73;;;;;;;;;;4944683;29;20027;-76
2021/10/27 04:17:11;;;;;;;46.40;31.00;;;;;;;;;;4925257;29;20449;-75
2021/10/27 04:19:37;;;;;;;45.17;29.67;;;;;;;;;;4944779;29;20019;-70
2021/10/27 04:22:03;;;;;;;39.80;29.40;;;;;;;;;;4943945;29;20039;-76
2021/10/27 04:24:29;;;;;;;45.08;31.35;;;;;;;;;;4940362;29;20107;-75
2021/10/27 04:26:55;;;;;;;46.70;32.08;;;;;;;;;;4932797;29;20043;-76
2021/10/27 04:29:21;;;;;;;42.75;31.13;;;;;;;;;;4942398;29;20473;-76
2021/10/27 04:31:47;;;;;;;39.10;27.75;;;;;;;;;;4952994;28;20110;-76
2021/10/27 04:34:13;;;;;;;38.67;30.45;;;;;;;;;;4954563;28;20460;-75
2021/10/27 04:36:42;;;;;;;43.85;29.75;;;;;;;;;;4945902;29;20039;-76
2021/10/27 04:39:09;;;;;;;43.00;29.88;;;;;;;;;;4943864;29;20099;-76
2021/10/27 04:41:35;;;;;;;42.20;28.77;;;;;;;;;;4957798;29;20028;-76
2021/10/27 04:44:01;;;;;;;52.85;37.05;;;;;;;;;;4949163;29;20027;-76
2021/10/27 04:46:27;;;;;;;52.60;34.95;;;;;;;;;;4951756;29;20039;-76
2021/10/27 04:48:53;;;;;;;60.97;43.05;;;;;;;;;;4941582;29;20038;-76
2021/10/27 04:51:19;;;;;;;59.97;40.33;;;;;;;;;;4935935;29;20040;-76
2021/10/27 04:53:45;;;;;;;51.33;38.15;;;;;;;;;;4936976;29;20038;-73
2021/10/27 04:56:11;;;;;;;59.53;40.45;;;;;;;;;;4950194;29;20489;-76
2021/10/27 04:58:38;;;;;;;67.35;43.25;;;;;;;;;;4948436;29;20059;-76
2021/10/27 05:01:04;;;;;;;67.00;44.83;;;;;;;;;;4937552;29;20023;-76
2021/10/27 05:03:30;;;;;;;55.78;39.83;;;;;;;;;;4958782;29;20027;-76
2021/10/27 05:05:56;;;;;;;62.63;42.75;;;;;;;;;;4957207;29;20389;-73
2021/10/27 05:08:23;;;;;;;59.17;42.15;;;;;;;;;;4955007;29;20035;-74
2021/10/27 05:10:51;;;;;;;62.20;43.92;;;;;;;;;;4938101;29;20378;-76
2021/10/27 05:13:18;;;;;;;67.40;46.78;;;;;;;;;;4935549;29;20126;-76
2021/10/27 05:15:45;;;;;;;73.20;48.08;;;;;;;;;;4953195;29;20477;-76
2021/10/27 05:18:11;;;;;;;64.60;44.13;;;;;;;;;;4953870;29;20027;-77
2021/10/27 05:20:37;;;;;;;60.08;42.45;;;;;;;;;;4954014;29;20539;-74
2021/10/27 05:23:05;;;;;;;57.75;40.20;;;;;;;;;;4944699;29;20032;-75
2021/10/27 05:25:31;;;;;;;63.10;44.67;;;;;;;;;;4956627;29;20060;-75
2021/10/27 05:27:57;;;;;;;56.88;40.33;;;;;;;;;;4944740;29;20038;-77
2021/10/27 05:30:24;;;;;;;62.10;45.10;;;;;;;;;;4943491;29;20024;-75
2021/10/27 05:32:56;;;;;;;62.63;42.03;;;;;;;;;;4936509;29;20031;-68
2021/10/27 05:35:22;;;;;;;72.53;40.13;;;;;;;;;;4942010;29;20043;-74
2021/10/27 05:37:48;;;;;;;60.28;39.08;;;;;;;;;;4936646;29;20035;-73
2021/10/27 05:40:14;;;;;;;59.33;40.20;;;;;;;;;;4935714;29;20025;-71
2021/10/27 05:42:40;;;;;;;53.55;37.67;;;;;;;;;;4939796;29;20032;-77
2021/10/27 05:45:08;;;;;;;49.70;37.35;;;;;;;;;;4931339;29;20047;-75
2021/10/27 05:47:35;;;;;;;63.60;43.70;;;;;;;;;;4941369;29;20062;-76
2021/10/27 05:55:33;;;;;;;59.25;39.13;;;;;;;;;;4942744;29;20516;-72
2021/10/27 05:58:02;;;;;;;55.20;37.70;;;;;;;;;;4941439;29;20028;-68
2021/10/27 06:00:29;;;;;;;51.80;35.53;;;;;;;;;;4953101;29;20023;-69
2021/10/27 06:02:55;;;;;;;57.28;36.83;;;;;;;;;;4953249;29;20018;-77
2021/10/27 06:05:21;;;;;;;58.40;38.33;;;;;;;;;;4957827;28;20028;-74
2021/10/27 06:07:48;;;;;;;58.58;38.53;;;;;;;;;;4958518;29;20486;-72
2021/10/27 06:10:19;;;;;;;57.28;38.90;;;;;;;;;;4954951;29;20026;-72
2021/10/27 06:24:45;;;;;;;66.07;51.47;;;;;;;;;;5116093;27;20465;-78
2021/10/27 06:27:11;;;;;;;55.78;43.95;;;;;;;;;;5116949;28;20505;-73
2021/10/27 06:29:43;;;;;;;57.00;40.38;;;;;;;;;;5094656;28;20488;-71
2021/10/27 06:34:37;;;;;;;52.08;40.28;;;;;;;;;;5118107;28;20056;-76
2021/10/27 06:48:13;;;;;;;48.95;34.25;;;;;;;;;;5049372;28;20090;-77
2021/10/27 06:50:40;;;;;;;49.47;38.92;;;;;;;;;;5052565;28;20159;-75
2021/10/27 06:53:06;;;;;;;46.67;33.05;;;;;;;;;;5039400;28;20049;-76
2021/10/27 06:55:36;;;;;;;45.13;33.90;;;;;;;;;;5029191;28;20021;-76
2021/10/27 06:58:02;;;;;;;46.42;33.72;;;;;;;;;;5044239;28;20168;-77
2021/10/27 07:00:47;;;;;;;46.63;36.42;;;;;;;;;;5049045;28;20429;-78
2021/10/27 07:03:33;;;;;;;54.85;36.33;;;;;;;;;;5048396;28;20048;-75
2021/10/27 07:06:37;;;;;;;49.80;35.70;;;;;;;;;;5030427;28;20133;-73
2021/10/27 07:17:20;;;;;;;50.92;36.47;;;;;;;;;;5094357;28;20081;-77
2021/10/27 07:19:47;;;;;;;47.88;34.40;;;;;;;;;;5109632;28;20024;-76
2021/10/27 07:22:14;;;;;;;52.30;35.88;;;;;;;;;;5104396;28;20023;-78
2021/10/27 07:24:43;;;;;;;50.40;34.97;;;;;;;;;;5093005;28;20035;-79
2021/10/27 07:27:11;;;;;;;47.40;34.00;;;;;;;;;;5084350;28;20606;-77
2021/10/27 07:32:24;;;;;;;47.92;35.80;;;;;;;;;;5091063;28;20123;-83
2021/10/27 07:40:32;;;;;;;47.22;34.88;;;;;;;;;;5081469;28;20158;-81
2021/10/27 07:42:53;;;;;;;55.50;38.10;;;;;;;;;;5087805;28;20050;-81
2021/10/27 07:45:25;;;;;;;59.47;40.50;;;;;;;;;;5066950;28;20035;-76
2021/10/27 07:47:51;;;;;;;52.42;36.92;;;;;;;;;;5087097;28;20024;-75
2021/10/27 07:50:17;;;;;;;64.25;44.78;;;;;;;;;;5082360;28;20020;-77
2021/10/27 07:52:43;;;;;;;54.78;40.75;;;;;;;;;;5086500;28;20076;-76
2021/10/27 07:55:09;;;;;;;55.63;42.00;;;;;;;;;;5084580;28;20027;-77
2021/10/27 07:57:36;;;;;;;56.10;42.17;;;;;;;;;;5081975;28;20032;-79
2021/10/27 08:00:04;;;;;;;67.05;41.88;;;;;;;;;;5087834;28;20020;-80
2021/10/27 08:02:30;;;;;;;56.08;40.22;;;;;;;;;;5083468;28;20036;-77
2021/10/27 08:04:56;;;;;;;55.58;36.08;;;;;;;;;;5062956;28;20078;-75
2021/10/27 08:07:22;;;;;;;46.63;34.10;;;;;;;;;;5081079;28;20017;-77
2021/10/27 08:09:48;;;;;;;54.80;35.20;;;;;;;;;;5082588;28;20112;-76
2021/10/27 08:12:15;;;;;;;55.08;37.03;;;;;;;;;;5068706;28;20119;-75
2021/10/27 08:14:41;;;;;;;66.07;38.53;;;;;;;;;;5088823;28;20032;-74
2021/10/27 08:17:07;;;;;;;53.15;38.85;;;;;;;;;;5092902;28;20039;-71
2021/10/27 08:19:33;;;;;;;51.97;37.38;;;;;;;;;;5091774;28;20511;-72
2021/10/27 08:22:02;;;;;;;50.35;38.80;;;;;;;;;;5083166;28;20024;-73
2021/10/27 08:24:29;;;;;;;57.53;41.22;;;;;;;;;;5087526;28;20472;-72
2021/10/27 08:27:04;;;;;;;56.65;38.92;;;;;;;;;;5089187;28;20096;-73
2021/10/27 08:29:36;;;;;;;49.33;37.20;;;;;;;;;;5083613;28;20031;-73
2021/10/27 08:32:10;;;;;;;50.10;39.13;;;;;;;;;;5082565;28;20052;-74
2021/10/27 08:34:42;;;;;;;57.60;38.25;;;;;;;;;;5078773;28;20029;-75
2021/10/27 08:37:08;;;;;;;54.58;39.15;;;;;;;;;;5079543;28;20093;-75
2021/10/27 08:39:47;;;;;;;52.40;37.45;;;;;;;;;;5088783;28;20092;-72
2021/10/27 08:42:14;;;;;;;50.17;38.95;;;;;;;;;;5094149;28;20028;-79
2021/10/27 08:44:50;;;;;;;55.47;36.72;;;;;;;;;;5091829;28;20438;-78
2021/10/27 08:47:17;;;;;;;46.67;33.20;;;;;;;;;;5085303;28;20037;-77
2021/10/27 08:49:43;;;;;;;49.10;35.10;;;;;;;;;;5089639;28;20020;-77
2021/10/27 08:52:12;;;;;;;49.70;34.97;;;;;;;;;;5072663;28;20154;-77
2021/10/27 08:54:38;;;;;;;57.42;36.10;;;;;;;;;;5085158;28;20024;-75
2021/10/27 08:57:06;;;;;;;50.28;36.17;;;;;;;;;;5090617;28;20028;-77
2021/10/27 09:05:33;;;;;;;42.80;32.85;;;;;;;;;;5091809;28;20034;-77
2021/10/27 10:07:18;;;;;;;45.05;27.27;;;;;;;;;;6199688;23;20024;-75
2021/10/27 10:09:54;;;;;;;34.60;26.25;;;;;;;;;;6197448;23;20008;-71
2021/10/27 10:12:20;;;;;;;34.47;25.20;;;;;;;;;;6202176;23;19993;-75
2021/10/27 10:14:49;;;;;;;44.40;27.60;;;;;;;;;;6198164;23;20009;-68
2021/10/27 10:17:16;;;;;;;34.85;25.58;;;;;;;;;;6204187;23;20015;-79
2021/10/27 10:20:01;;;;;;;33.15;24.58;;;;;;;;;;6188494;23;20004;-80
2021/10/27 10:22:30;;;;;;;33.40;23.92;;;;;;;;;;6183672;23;20004;-79
2021/10/27 10:25:16;;;;;;;36.30;25.45;;;;;;;;;;6169483;23;20080;-74
2021/10/27 10:27:45;;;;;;;40.28;26.83;;;;;;;;;;6192071;23;20017;-72
2021/10/27 10:30:33;;;;;;;33.35;23.67;;;;;;;;;;6192810;23;19993;-73
2021/10/27 10:33:06;;;;;;;40.63;26.42;;;;;;;;;;6192139;23;20075;-73
2021/10/27 10:35:48;;;;;;;39.10;26.23;;;;;;;;;;6165514;23;20019;-73
2021/10/27 11:02:38;;;;;;;43.42;29.55;;;;;;;;;;5928969;24;20239;-78
2021/10/27 11:24:55;;;;;;;34.80;25.88;;;;;;;;;;5941170;24;20089;-77
2021/10/27 11:27:35;;;;;;;35.50;26.40;;;;;;;;;;5946773;24;20021;-79
2021/10/27 11:41:27;;;;;;;37.30;27.10;;;;;;;;;;6147295;23;20021;-75
2021/10/27 11:43:58;;;;;;;36.20;28.42;;;;;;;;;;6129588;23;20002;-70
2021/10/27 11:46:46;;;;;;;36.88;27.70;;;;;;;;;;6138785;23;20029;-69
2021/10/27 11:49:14;;;;;;;41.15;30.05;;;;;;;;;;6141375;23;20020;-69
2021/10/27 11:51:40;;;;;;;42.35;29.17;;;;;;;;;;6137300;23;20009;-74
2021/10/27 11:54:14;;;;;;;44.67;31.48;;;;;;;;;;6135756;23;19998;-77
2021/10/27 11:56:46;;;;;;;41.28;28.90;;;;;;;;;;6145447;23;20002;-80
2021/10/27 11:59:12;;;;;;;42.13;27.42;;;;;;;;;;6120910;23;20013;-77
2021/10/27 12:01:42;;;;;;;36.92;26.77;;;;;;;;;;6132123;23;20033;-76
2021/10/27 12:04:40;;;;;;;34.55;24.52;;;;;;;;;;6129233;23;20421;-80
2021/10/27 12:17:38;;;;;;;33.88;24.90;;;;;;;;;;6185069;23;20017;-73
2021/10/27 12:20:05;;;;;;;37.53;26.13;;;;;;;;;;6160664;23;20005;-72
2021/10/27 12:22:32;;;;;;;34.80;25.77;;;;;;;;;;6161369;23;20432;-74
2021/10/27 12:25:05;;;;;;;43.67;30.13;;;;;;;;;;6185870;23;20001;-75
2021/10/27 12:27:37;;;;;;;41.83;29.17;;;;;;;;;;6160531;23;20440;-71
2021/10/27 12:30:07;;;;;;;40.70;27.20;;;;;;;;;;6160514;23;20027;-72
2021/10/27 12:32:34;;;;;;;52.20;32.88;;;;;;;;;;6185968;23;20001;-72
2021/10/27 12:35:16;;;;;;;48.42;29.33;;;;;;;;;;6189176;23;20005;-73
2021/10/27 12:37:47;;;;;;;37.85;26.13;;;;;;;;;;6161450;23;20086;-73
2021/10/27 12:40:22;;;;;;;34.47;26.27;;;;;;;;;;6189144;23;20004;-75
2021/10/27 12:43:01;;;;;;;37.28;25.77;;;;;;;;;;6160898;23;20009;-71
2021/10/27 12:45:37;;;;;;;35.95;25.55;;;;;;;;;;6159426;23;20028;-72
2021/10/27 12:48:08;;;;;;;38.58;27.05;;;;;;;;;;6186476;23;20024;-72
2021/10/27 12:50:38;;;;;;;42.33;27.15;;;;;;;;;;6163054;23;20016;-76
2021/10/27 12:53:09;;;;;;;38.08;25.70;;;;;;;;;;6173132;23;20001;-77
2021/10/27 12:55:39;;;;;;;38.95;25.38;;;;;;;;;;6196746;23;20008;-75
2021/10/27 12:58:16;;;;;;;40.90;26.52;;;;;;;;;;6184558;23;20357;-74
2021/10/27 13:01:01;;;;;;;34.75;24.88;;;;;;;;;;6184869;23;20309;-74
2021/10/27 13:31:54;;;;;;;38.15;26.50;;;;;;;;;;6183639;23;20012;-75
2021/10/27 13:34:22;;;;;;;37.90;26.05;;;;;;;;;;6183988;23;20001;-75
2021/10/27 13:37:07;;;;;;;35.80;25.67;;;;;;;;;;6162949;23;20024;-71
2021/10/27 13:39:40;;;;;;;40.55;26.98;;;;;;;;;;6168708;23;20001;-73
2021/10/27 13:57:51;;;;;;;38.70;27.48;;;;;;;;;;6115100;23;20053;-68
2021/10/27 14:06:46;;;;;;;43.28;26.50;;;;;;;;;;6104116;23;20017;-69
2021/10/27 14:11:58;;;;;;;55.97;38.22;;;;;;;;;;6111073;23;20014;-69
2021/10/27 14:14:37;;;;;;;51.83;35.70;;;;;;;;;;6107166;23;20010;-76
2021/10/27 14:20:00;;;;;;;41.83;30.88;;;;;;;;;;6120187;23;20017;-76
2021/10/27 15:20:34;;;;;;;57.10;37.45;;;;;;;;;;6069218;23;20055;-74
2021/10/27 15:23:34;;;;;;;76.82;46.33;;;;;;;;;;6007487;23;20072;-72
2021/10/27 15:31:54;;;;;;;77.35;49.63;;;;;;;;;;6009313;23;20091;-73
2021/10/27 15:40:20;;;;;;;64.47;44.10;;;;;;;;;;6137005;23;20049;-80
2021/10/27 15:51:23;;;;;;;64.43;42.17;;;;;;;;;;6071499;23;20538;-75
2021/10/27 15:53:55;;;;;;;73.40;42.95;;;;;;;;;;6045066;23;20026;-74
2021/10/27 15:56:23;;;;;;;85.28;45.33;;;;;;;;;;6046828;23;20017;-73
2021/10/27 15:59:05;;;;;;;;;;;;;;;;;;;;;
2021/10/27 16:01:31;;;;;;;86.72;51.80;;;;;;;;;;6068952;23;20066;-75
2021/10/27 16:04:00;;;;;;;116.35;68.10;;;;;;;;;;6051329;23;20007;-77
2021/10/27 16:06:28;;;;;;;150.35;87.55;;;;;;;;;;6017236;23;20004;-73
2021/10/27 16:08:57;;;;;;;156.68;92.30;;;;;;;;;;6019838;23;20015;-77
2021/10/27 16:11:25;;;;;;;130.88;79.55;;;;;;;;;;6023950;23;20083;-78
2021/10/27 16:13:52;;;;;;;190.73;111.15;;;;;;;;;;6021199;23;20450;-77
2021/10/27 16:16:41;;;;;;;168.63;103.78;;;;;;;;;;6037779;23;20006;-80
2021/10/27 16:19:13;;;;;;;140.75;86.60;;;;;;;;;;6113022;23;20066;-77
2021/10/27 16:21:40;;;;;;;101.68;66.88;;;;;;;;;;6052410;23;20018;-77
2021/10/27 16:24:12;;;;;;;97.45;59.58;;;;;;;;;;6039689;23;20442;-69
2021/10/27 16:26:42;;;;;;;108.80;67.25;;;;;;;;;;6035846;23;20015;-71
2021/10/27 16:29:08;;;;;;;111.93;71.82;;;;;;;;;;6010396;23;20023;-72
2021/10/27 16:31:34;;;;;;;112.55;72.25;;;;;;;;;;6082907;23;20002;-72
2021/10/27 16:34:00;;;;;;;113.05;71.65;;;;;;;;;;6122275;23;20006;-71
2021/10/27 16:36:32;;;;;;;105.63;69.25;;;;;;;;;;6123743;23;20460;-76
2021/10/27 16:38:59;;;;;;;100.43;67.88;;;;;;;;;;6114228;23;20002;-68
2021/10/27 16:41:28;;;;;;;99.47;66.65;;;;;;;;;;6101289;23;20387;-75
2021/10/27 16:43:54;;;;;;;91.30;64.10;;;;;;;;;;6130108;23;20420;-76
2021/10/27 16:46:20;;;;;;;90.90;62.22;;;;;;;;;;6127550;23;20017;-76
2021/10/27 16:48:46;;;;;;;94.72;69.38;;;;;;;;;;6126788;23;20013;-77
2021/10/27 16:51:12;;;;;;;94.38;68.38;;;;;;;;;;6128291;23;20006;-77
2021/10/27 16:53:40;;;;;;;89.85;63.45;;;;;;;;;;6132647;23;20033;-73
2021/10/27 16:56:06;;;;;;;84.95;57.70;;;;;;;;;;6104746;23;20056;-70
2021/10/27 16:58:33;;;;;;;77.60;53.03;;;;;;;;;;6111002;23;20022;-70
2021/10/27 17:00:59;;;;;;;81.00;53.33;;;;;;;;;;6136699;23;20324;-74
2021/10/27 17:03:25;;;;;;;88.10;55.03;;;;;;;;;;6137642;23;20008;-72
2021/10/27 17:05:51;;;;;;;93.10;54.72;;;;;;;;;;6158400;23;20005;-72
2021/10/27 17:08:20;;;;;;;106.35;62.90;;;;;;;;;;6192800;23;20019;-71
2021/10/27 17:11:15;;;;;;;99.40;63.88;;;;;;;;;;6197373;23;20005;-71
2021/10/27 17:13:42;;;;;;;111.57;67.88;;;;;;;;;;6138425;23;20002;-66
2021/10/27 17:16:28;;;;;;;125.00;76.65;;;;;;;;;;6100632;23;20014;-73
2021/10/27 17:19:12;;;;;;;127.22;83.03;;;;;;;;;;6097560;23;20089;-71
2021/10/27 17:21:38;;;;;;;115.55;73.00;;;;;;;;;;6099807;23;20515;-71
2021/10/27 17:24:17;;;;;;;126.50;72.40;;;;;;;;;;6122311;23;20013;-72
2021/10/27 17:26:43;;;;;;;114.20;63.58;;;;;;;;;;6097884;23;20040;-72
2021/10/27 17:29:13;;;;;;;96.57;56.38;;;;;;;;;;6122351;23;20014;-73
2021/10/27 17:31:51;;;;;;;85.35;53.38;;;;;;;;;;6121976;23;20010;-71
2021/10/27 17:34:36;;;;;;;84.82;56.15;;;;;;;;;;6122460;23;20021;-72
2021/10/27 17:37:03;;;;;;;74.15;48.83;;;;;;;;;;6097325;23;20016;-73
2021/10/27 17:39:30;;;;;;;72.28;49.60;;;;;;;;;;6122405;23;20017;-72
2021/10/27 17:42:20;;;;;;;74.20;49.97;;;;;;;;;;6098005;23;20523;-71
2021/10/27 17:44:46;;;;;;;79.47;50.40;;;;;;;;;;6153043;23;20009;-73
2021/10/27 17:47:17;;;;;;;71.18;49.90;;;;;;;;;;6156914;23;20450;-71
2021/10/27 17:50:08;;;;;;;69.82;48.50;;;;;;;;;;6185119;23;20088;-73
2021/10/27 17:52:47;;;;;;;75.15;50.05;;;;;;;;;;6185959;23;20001;-72
2021/10/27 18:00:48;;;;;;;69.78;48.80;;;;;;;;;;6196003;23;20387;-73
2021/10/27 18:03:14;;;;;;;77.15;50.55;;;;;;;;;;6185720;23;20006;-74
2021/10/27 18:05:40;;;;;;;73.70;49.70;;;;;;;;;;6186345;23;20373;-74
2021/10/27 18:08:09;;;;;;;81.68;49.33;;;;;;;;;;6185704;23;20039;-74
2021/10/27 18:10:35;;;;;;;67.60;46.42;;;;;;;;;;6185637;23;20400;-73
2021/10/27 18:13:02;;;;;;;71.60;47.00;;;;;;;;;;6186092;23;20005;-74
2021/10/27 18:15:35;;;;;;;70.85;45.58;;;;;;;;;;6185070;23;20408;-73
2021/10/27 18:18:05;;;;;;;83.05;49.92;;;;;;;;;;6185829;23;20001;-71
2021/10/27 18:20:40;;;;;;;75.38;45.58;;;;;;;;;;6159466;23;20323;-73
2021/10/27 18:23:22;;;;;;;73.07;48.08;;;;;;;;;;6185579;23;20004;-72
2021/10/27 18:39:33;;;;;;;79.45;53.30;;;;;;;;;;6163550;23;20026;-78
2021/10/27 18:42:04;;;;;;;82.00;53.42;;;;;;;;;;6154860;23;19994;-84
2021/10/27 18:44:30;;;;;;;87.30;54.70;;;;;;;;;;6207097;23;20025;-80
2021/10/27 18:46:56;;;;;;;90.45;55.63;;;;;;;;;;6214752;23;20019;-73
2021/10/27 18:49:23;;;;;;;84.85;51.67;;;;;;;;;;6215161;23;20016;-83
2021/10/27 18:52:17;;;;;;;92.00;50.45;;;;;;;;;;6214621;23;19985;-78
2021/10/27 18:54:59;;;;;;;73.95;50.70;;;;;;;;;;6215115;23;20017;-81
2021/10/27 19:11:08;;;;;;;69.38;51.08;;;;;;;;;;6095943;23;20071;-78
2021/10/27 19:16:29;;;;;;;;;;;;;;;;;;;;;
2021/10/27 19:18:56;;;;;;;212.43;142.13;;;;;;;;;;6089897;23;20007;-74
2021/10/27 19:21:23;;;;;;;169.48;113.72;;;;;;;;;;6062364;23;20007;-72
2021/10/27 19:23:49;;;;;;;110.55;77.82;;;;;;;;;;6087230;23;20006;-73
2021/10/27 19:26:20;;;;;;;102.55;73.45;;;;;;;;;;6092649;23;20011;-71
2021/10/27 19:34:57;;;;;;;68.72;49.90;;;;;;;;;;6076941;23;20007;-80
2021/10/27 20:06:25;;;;;;;61.05;44.70;;;;;;;;;;5926336;24;20108;-79
2021/10/27 20:09:25;;;;;;;64.57;43.75;;;;;;;;;;5942309;24;20025;-82
2021/10/27 20:53:29;;;;;;;80.55;55.63;;;;;;;;;;6093394;23;20133;-76
2021/10/27 20:56:42;;;;;;;;;;;;;;;;;;;;;
2021/10/27 21:13:16;;;;;;;74.70;55.60;;;;;;;;;;6034019;23;20073;-75
2021/10/27 21:15:42;;;;;;;72.85;50.80;;;;;;;;;;6012556;23;20018;-76
2021/10/27 21:18:08;;;;;;;68.65;46.08;;;;;;;;;;6035652;23;20060;-74
2021/10/27 21:20:35;;;;;;;62.35;45.22;;;;;;;;;;6030392;23;20010;-83
2021/10/27 21:23:02;;;;;;;64.97;48.92;;;;;;;;;;6012479;23;20051;-77
2021/10/27 21:25:31;;;;;;;69.35;47.38;;;;;;;;;;6036569;23;20035;-73
2021/10/27 21:28:09;;;;;;;69.03;50.45;;;;;;;;;;6031106;23;20019;-84
2021/10/27 21:33:51;;;;;;;72.97;52.53;;;;;;;;;;5986950;24;20024;-75
2021/10/27 21:44:31;;;;;;;;;;;;;;;;;;6154248;23;19896;-79
2021/10/27 21:46:58;;;;;;;72.22;50.45;;;;;;;;;;6152674;23;19909;-76
2021/10/27 21:49:25;;;;;;;78.28;53.08;;;;;;;;;;6152383;23;19989;-80
2021/10/27 21:51:55;;;;;;;80.25;53.63;;;;;;;;;;6152657;23;20018;-81
2021/10/27 21:54:28;;;;;;;79.22;54.53;;;;;;;;;;6132124;23;19993;-81
2021/10/27 21:56:54;;;;;;;81.32;54.63;;;;;;;;;;6181324;23;19994;-75
2021/10/27 21:59:21;;;;;;;79.13;53.75;;;;;;;;;;6182585;23;20061;-78
2021/10/27 22:01:50;;;;;;;70.80;51.25;;;;;;;;;;6182899;23;20006;-83